createdAt,value
2023-03-21T00:00:17.878Z,12.43
2023-03-21T00:02:44.397Z,12.50
2023-03-21T00:05:15.893Z,12.35
2023-03-21T00:07:42.767Z,12.40
2023-03-21T00:10:16.609Z,12.35
2023-03-21T00:12:44.749Z,12.38
2023-03-21T00:15:12.918Z,12.40
2023-03-21T00:17:39.821Z,12.38
2023-03-21T00:20:15.183Z,12.42
2023-03-21T00:22:42.216Z,12.31
2023-03-21T00:25:10.514Z,12.40
2023-03-21T00:27:56.816Z,12.37
2023-03-21T00:30:24.118Z,12.24
2023-03-21T00:32:56.553Z,12.21
2023-03-21T00:35:57.364Z,12.14
2023-03-21T00:38:10.852Z,12.12
2023-03-21T00:40:43.641Z,12.24
2023-03-21T00:43:17.628Z,12.29
2023-03-21T00:45:45.417Z,12.32
2023-03-21T00:48:12.308Z,12.34
2023-03-21T00:50:42.129Z,12.30
2023-03-21T00:53:08.846Z,12.20
2023-03-21T00:55:35.633Z,12.23
2023-03-21T00:58:02.777Z,12.32
2023-03-21T01:00:30.437Z,12.35
2023-03-21T01:03:04.515Z,12.42
2023-03-21T01:05:58.897Z,12.62
2023-03-21T01:08:31.123Z,12.59
2023-03-21T01:11:08.426Z,12.63
2023-03-21T01:13:38.412Z,12.59
2023-03-21T01:16:08.982Z,12.42
2023-03-21T01:18:36.796Z,12.18
2023-03-21T01:21:08.610Z,12.18
2023-03-21T01:23:35.435Z,12.20
2023-03-21T01:26:02.203Z,12.21
2023-03-21T01:28:29.934Z,12.28
2023-03-21T01:30:57.028Z,12.23
2023-03-21T01:33:23.973Z,12.20
2023-03-21T01:35:57.624Z,12.18
2023-03-21T01:38:33.246Z,12.17
2023-03-21T01:41:06.145Z,11.96
2023-03-21T01:43:36.922Z,11.88
2023-03-21T01:46:21.345Z,11.90
2023-03-21T01:49:15.434Z,11.88
2023-03-21T01:51:46.623Z,11.86
2023-03-21T01:54:24.692Z,11.84
2023-03-21T01:56:53.919Z,11.82
2023-03-21T01:59:26.236Z,11.86
2023-03-21T02:02:14.186Z,11.74
2023-03-21T02:04:55.961Z,11.78
2023-03-21T02:07:31.706Z,11.83
2023-03-21T02:10:12.500Z,11.83
2023-03-21T02:12:42.841Z,11.77
2023-03-21T02:15:11.280Z,11.77
2023-03-21T02:18:01.952Z,11.67
2023-03-21T02:20:55.323Z,11.68
2023-03-21T02:23:56.942Z,11.65
2023-03-21T02:27:03.926Z,11.73
2023-03-21T02:30:26.505Z,11.66
2023-03-21T02:33:28.834Z,11.61
2023-03-21T02:36:26.195Z,11.58
2023-03-21T02:39:13.718Z,11.47
2023-03-21T02:42:06.262Z,11.40
2023-03-21T02:44:45.230Z,11.42
2023-03-21T02:47:22.662Z,11.41
2023-03-21T02:49:58.176Z,11.39
2023-03-21T02:52:38.750Z,11.35
2023-03-21T02:55:13.931Z,11.33
2023-03-21T02:57:48.601Z,11.38
2023-03-21T03:00:29.635Z,11.43
2023-03-21T03:03:08.838Z,11.42
2023-03-21T03:05:46.002Z,11.41
2023-03-21T03:08:43.057Z,11.34
2023-03-21T03:11:29.040Z,11.32
2023-03-21T03:14:32.478Z,11.37
2023-03-21T03:17:39.484Z,11.37
2023-03-21T03:20:23.254Z,11.42
2023-03-21T03:22:58.674Z,11.42
2023-03-21T03:25:42.551Z,11.50
2023-03-21T03:28:17.148Z,11.49
2023-03-21T03:30:57.437Z,11.46
2023-03-21T03:33:37.100Z,11.50
2023-03-21T03:36:06.848Z,11.50
2023-03-21T03:38:36.841Z,11.75
2023-03-21T03:41:11.586Z,11.81
2023-03-21T03:43:48.158Z,12.38
2023-03-21T03:46:19.615Z,11.94
2023-03-21T03:48:50.514Z,12.00
2023-03-21T03:51:22.622Z,11.89
2023-03-21T03:54:14.395Z,11.83
2023-03-21T03:56:42.142Z,11.78
2023-03-21T03:59:09.210Z,11.71
2023-03-21T04:01:54.642Z,11.76
2023-03-21T04:04:22.911Z,11.78
2023-03-21T04:06:53.794Z,11.83
2023-03-21T04:09:31.511Z,11.78
2023-03-21T04:12:07.602Z,11.71
2023-03-21T04:14:44.075Z,11.80
2023-03-21T04:17:11.742Z,11.61
2023-03-21T04:19:38.286Z,11.62
2023-03-21T04:22:04.832Z,11.82
2023-03-21T04:24:33.855Z,11.84
2023-03-21T04:27:00.810Z,11.87
2023-03-21T04:29:38.586Z,11.89
2023-03-21T04:32:24.738Z,11.83
2023-03-21T04:35:00.304Z,11.75
2023-03-21T04:37:27.916Z,11.80
2023-03-21T04:39:55.186Z,11.83
2023-03-21T04:42:21.905Z,11.82
2023-03-21T04:44:49.206Z,11.63
2023-03-21T04:47:16.254Z,11.56
2023-03-21T04:49:43.513Z,11.72
2023-03-21T04:52:11.315Z,11.44
2023-03-21T04:54:37.841Z,11.28
2023-03-21T04:57:04.802Z,11.31
2023-03-21T04:59:31.729Z,11.35
2023-03-21T05:01:58.675Z,11.32
2023-03-21T05:04:26.763Z,11.45
2023-03-21T05:06:53.784Z,11.30
2023-03-21T05:09:22.245Z,11.25
2023-03-21T05:11:49.685Z,11.18
2023-03-21T05:14:21.023Z,11.17
2023-03-21T05:16:54.344Z,11.13
2023-03-21T05:19:34.879Z,11.15
2023-03-21T05:22:05.432Z,11.17
2023-03-21T05:24:32.883Z,11.15
2023-03-21T05:27:02.758Z,11.21
2023-03-21T05:29:33.744Z,11.19
2023-03-21T05:32:02.893Z,11.22
2023-03-21T05:34:29.462Z,11.15
2023-03-21T05:36:56.262Z,11.21
2023-03-21T05:39:25.571Z,11.24
2023-03-21T05:42:00.785Z,11.21
2023-03-21T05:44:27.572Z,11.18
2023-03-21T05:46:54.451Z,11.21
2023-03-21T05:49:26.973Z,11.18
2023-03-21T05:51:57.708Z,11.17
2023-03-21T05:54:24.936Z,11.16
2023-03-21T05:56:51.649Z,11.16
2023-03-21T05:59:37.956Z,11.08
2023-03-21T06:02:05.416Z,11.06
2023-03-21T06:04:31.918Z,11.10
2023-03-21T06:06:58.463Z,11.30
2023-03-21T06:09:26.002Z,11.34
2023-03-21T06:11:57.276Z,11.44
2023-03-21T06:14:31.242Z,11.52
2023-03-21T06:17:16.597Z,11.56
2023-03-21T06:19:48.610Z,11.54
2023-03-21T06:22:26.103Z,11.49
2023-03-21T06:24:52.740Z,11.54
2023-03-21T06:27:19.312Z,11.52
2023-03-21T06:29:50.638Z,11.37
2023-03-21T06:32:18.008Z,11.43
2023-03-21T06:34:45.338Z,11.41
2023-03-21T06:37:14.497Z,11.49
2023-03-21T06:39:41.414Z,11.47
2023-03-21T06:42:09.829Z,11.52
2023-03-21T06:44:36.711Z,11.49
2023-03-21T06:47:07.076Z,11.42
2023-03-21T06:49:33.736Z,11.50
2023-03-21T06:52:07.109Z,11.48
2023-03-21T06:54:34.032Z,11.47
2023-03-21T06:57:07.710Z,11.41
2023-03-21T06:59:36.170Z,11.36
2023-03-21T07:02:10.816Z,11.45
2023-03-21T07:04:42.238Z,11.48
2023-03-21T07:07:14.367Z,11.45
2023-03-21T07:09:41.130Z,11.21
2023-03-21T07:12:08.268Z,11.28
2023-03-21T07:14:49.263Z,11.35
2023-03-21T07:17:15.987Z,11.35
2023-03-21T07:19:44.756Z,11.48
2023-03-21T07:22:11.584Z,11.56
2023-03-21T07:24:38.057Z,11.52
2023-03-21T07:27:04.686Z,11.54
2023-03-21T07:29:31.305Z,11.55
2023-03-21T07:31:57.867Z,11.42
2023-03-21T07:34:24.487Z,11.49
2023-03-21T07:36:50.996Z,11.55
2023-03-21T07:39:17.723Z,11.65
2023-03-21T07:41:44.354Z,11.60
2023-03-21T07:44:23.120Z,11.69
2023-03-21T07:46:57.184Z,11.70
2023-03-21T07:49:24.263Z,11.74
2023-03-21T07:51:51.301Z,11.82
2023-03-21T07:54:21.012Z,11.90
2023-03-21T08:00:38.315Z,11.61
2023-03-21T08:03:05.390Z,11.66
2023-03-21T08:05:36.790Z,11.72
2023-03-21T08:08:40.768Z,11.73
2023-03-21T08:11:12.042Z,11.57
2023-03-21T08:13:38.751Z,11.39
2023-03-21T08:16:15.627Z,11.41
2023-03-21T08:18:45.480Z,11.45
2023-03-21T08:21:11.955Z,11.41
2023-03-21T08:23:50.560Z,11.47
2023-03-21T08:26:26.543Z,11.73
2023-03-21T08:28:59.877Z,11.56
2023-03-21T08:31:26.439Z,11.65
2023-03-21T08:33:54.759Z,11.72
2023-03-21T08:36:22.977Z,11.76
2023-03-21T08:38:53.976Z,11.65
2023-03-21T08:41:22.162Z,11.55
2023-03-21T08:43:49.099Z,11.60
2023-03-21T08:46:15.820Z,11.75
2023-03-21T08:48:42.816Z,11.89
2023-03-21T08:51:09.361Z,11.96
2023-03-21T08:53:35.972Z,11.93
2023-03-21T08:56:02.523Z,11.87
2023-03-21T08:58:29.083Z,11.92
2023-03-21T09:00:56.507Z,12.11
2023-03-21T09:03:23.101Z,12.02
2023-03-21T09:05:50.097Z,11.90
2023-03-21T09:08:16.852Z,11.91
2023-03-21T09:10:43.321Z,11.87
2023-03-21T09:13:09.903Z,11.94
2023-03-21T09:15:36.849Z,12.05
2023-03-21T09:18:13.096Z,12.10
2023-03-21T09:20:40.495Z,12.11
2023-03-21T09:23:07.469Z,12.13
2023-03-21T09:25:34.029Z,12.26
2023-03-21T09:28:01.014Z,12.37
2023-03-21T09:30:28.289Z,12.42
2023-03-21T09:32:55.830Z,12.45
2023-03-21T09:35:24.300Z,12.27
2023-03-21T09:37:50.978Z,12.34
2023-03-21T09:40:42.006Z,12.62
2023-03-21T09:43:38.839Z,12.69
2023-03-21T09:46:19.526Z,12.73
2023-03-21T09:48:58.457Z,12.81
2023-03-21T09:51:28.863Z,12.63
2023-03-21T09:53:57.253Z,12.75
2023-03-21T09:56:26.134Z,12.80
2023-03-21T09:58:56.244Z,12.96
2023-03-21T10:01:32.961Z,12.99
2023-03-21T10:04:06.339Z,13.01
2023-03-21T10:06:39.181Z,13.11
2023-03-21T10:09:11.304Z,13.20
2023-03-21T10:11:47.849Z,13.26
2023-03-21T10:14:19.878Z,13.32
2023-03-21T10:16:52.751Z,13.32
2023-03-21T10:19:20.275Z,13.31
2023-03-21T10:22:00.646Z,13.34
2023-03-21T10:24:28.778Z,13.37
2023-03-21T10:26:56.069Z,13.42
2023-03-21T10:29:29.293Z,13.57
2023-03-21T10:31:56.436Z,13.69
2023-03-21T10:34:37.058Z,13.81
2023-03-21T10:37:05.359Z,13.81
2023-03-21T10:39:38.128Z,13.70
2023-03-21T10:42:05.004Z,13.67
2023-03-21T10:44:33.908Z,13.78
2023-03-21T10:47:06.625Z,13.93
2023-03-21T10:49:40.655Z,14.00
2023-03-21T10:52:21.825Z,13.86
2023-03-21T10:54:48.765Z,13.92
2023-03-21T10:57:22.152Z,13.94
2023-03-21T10:59:58.091Z,14.05
2023-03-21T11:02:28.785Z,14.18
2023-03-21T11:04:55.965Z,14.28
2023-03-21T11:07:25.329Z,14.27
2023-03-21T11:09:57.788Z,14.33
2023-03-21T11:12:37.144Z,14.46
2023-03-21T11:15:29.067Z,14.64
2023-03-21T11:17:55.742Z,14.63
2023-03-21T11:20:22.941Z,14.64
2023-03-21T11:22:50.257Z,14.61
2023-03-21T11:25:31.781Z,14.40
2023-03-21T11:27:59.293Z,14.41
2023-03-21T11:30:27.518Z,14.42
2023-03-21T11:32:59.049Z,14.56
2023-03-21T11:35:28.827Z,14.56
2023-03-21T11:37:56.499Z,14.51
2023-03-21T11:40:30.772Z,14.76
2023-03-21T11:43:19.075Z,14.93
2023-03-21T11:46:01.300Z,15.18
2023-03-21T11:48:28.781Z,15.16
2023-03-21T11:51:01.281Z,15.36
2023-03-21T11:53:39.537Z,15.36
2023-03-21T11:56:13.661Z,15.38
2023-03-21T11:58:58.821Z,15.21
2023-03-21T12:01:35.161Z,15.37
2023-03-21T12:04:18.456Z,15.15
2023-03-21T12:06:57.389Z,15.29
2023-03-21T12:09:29.592Z,15.39
2023-03-21T12:12:30.020Z,15.47
2023-03-21T12:15:30.191Z,15.31
2023-03-21T12:18:14.127Z,15.23
2023-03-21T12:21:04.923Z,15.05
2023-03-21T12:23:37.576Z,15.19
2023-03-21T12:26:17.144Z,15.25
2023-03-21T12:29:18.378Z,15.22
2023-03-21T12:31:55.492Z,15.23
2023-03-21T12:34:57.363Z,15.18
2023-03-21T12:37:58.082Z,15.21
2023-03-21T12:41:03.038Z,14.92
2023-03-21T12:43:41.041Z,14.95
2023-03-21T12:46:34.052Z,15.05
2023-03-21T12:49:03.995Z,15.06
2023-03-21T12:51:33.964Z,15.03
2023-03-21T12:54:28.506Z,15.15
2023-03-21T12:57:01.717Z,15.14
2023-03-21T12:59:39.489Z,14.93
2023-03-21T13:02:17.288Z,15.04
2023-03-21T13:05:06.330Z,15.03
2023-03-21T13:07:37.698Z,14.94
2023-03-21T13:10:13.109Z,15.02
2023-03-21T13:12:49.308Z,14.77
2023-03-21T13:15:48.108Z,14.88
2023-03-21T13:18:25.933Z,14.89
2023-03-21T13:20:55.882Z,15.03
2023-03-21T13:23:23.596Z,14.94
2023-03-21T13:25:52.028Z,15.09
2023-03-21T13:28:18.420Z,15.18
2023-03-21T13:30:45.699Z,15.14
2023-03-21T13:33:15.109Z,15.19
2023-03-21T13:35:44.308Z,15.19
2023-03-21T13:38:26.724Z,15.33
2023-03-21T13:40:58.980Z,15.32
2023-03-21T13:43:40.691Z,15.36
2023-03-21T13:46:26.629Z,15.37
2023-03-21T13:48:58.786Z,15.28
2023-03-21T13:51:41.466Z,15.18
2023-03-21T13:54:07.870Z,15.22
2023-03-21T13:56:52.381Z,15.28
2023-03-21T13:59:35.778Z,15.23
2023-03-21T14:02:22.581Z,15.29
2023-03-21T14:05:04.889Z,15.04
2023-03-21T14:07:34.909Z,15.07
2023-03-21T14:10:06.150Z,15.19
2023-03-21T14:12:41.210Z,15.30
2023-03-21T14:15:17.358Z,15.31
2023-03-21T14:17:54.808Z,15.15
2023-03-21T14:20:22.682Z,15.13
2023-03-21T14:22:49.853Z,15.23
2023-03-21T14:25:18.937Z,15.27
2023-03-21T14:27:56.898Z,15.25
2023-03-21T14:30:28.474Z,15.37
2023-03-21T14:33:00.031Z,15.43
2023-03-21T14:35:31.237Z,15.51
2023-03-21T14:38:01.130Z,15.34
2023-03-21T14:40:28.867Z,15.44
2023-03-21T14:42:55.925Z,15.36
2023-03-21T14:45:25.338Z,15.48
2023-03-21T14:48:14.976Z,15.41
2023-03-21T14:50:51.979Z,15.43
2023-03-21T14:53:29.500Z,15.38
2023-03-21T14:56:02.123Z,15.25
2023-03-21T14:58:32.254Z,15.31
2023-03-21T15:01:04.215Z,15.23
2023-03-21T15:03:31.296Z,15.12
2023-03-21T15:05:59.100Z,15.14
2023-03-21T15:08:28.328Z,15.29
2023-03-21T15:11:07.310Z,15.41
2023-03-21T15:13:50.202Z,15.14
2023-03-21T15:16:17.433Z,15.04
2023-03-21T15:18:44.551Z,15.11
2023-03-21T15:21:16.549Z,15.24
2023-03-21T15:23:45.188Z,15.18
2023-03-21T15:26:20.522Z,15.33
2023-03-21T15:28:49.667Z,15.40
2023-03-21T15:31:30.407Z,15.47
2023-03-21T15:33:57.255Z,15.41
2023-03-21T15:36:27.670Z,15.30
2023-03-21T15:38:54.990Z,15.26
2023-03-21T15:41:21.533Z,15.33
2023-03-21T15:43:54.621Z,15.32
2023-03-21T15:46:42.346Z,15.36
2023-03-21T15:49:14.862Z,15.25
2023-03-21T15:51:43.445Z,15.31
2023-03-21T15:54:15.055Z,15.24
2023-03-21T15:56:47.996Z,15.32
2023-03-21T15:59:18.128Z,15.18
2023-03-21T16:01:48.583Z,15.15
2023-03-21T16:04:18.288Z,15.20
2023-03-21T16:06:54.909Z,15.23
2023-03-21T16:09:24.453Z,15.26
2023-03-21T16:11:56.241Z,15.16
2023-03-21T16:14:24.130Z,15.24
2023-03-21T16:16:50.987Z,15.26
2023-03-21T16:19:17.806Z,15.25
2023-03-21T16:21:44.563Z,15.29
2023-03-21T16:24:13.563Z,15.32
2023-03-21T16:26:51.034Z,15.31
2023-03-21T16:29:18.970Z,15.32
2023-03-21T16:31:47.374Z,15.41
2023-03-21T16:34:14.450Z,15.30
2023-03-21T16:36:41.774Z,15.30
2023-03-21T16:39:20.552Z,15.34
2023-03-21T16:41:47.706Z,15.36
2023-03-21T16:44:14.732Z,15.28
2023-03-21T16:46:54.443Z,15.32
2023-03-21T16:49:30.973Z,15.26
2023-03-21T16:51:57.505Z,15.32
2023-03-21T16:54:24.318Z,15.33
2023-03-21T16:56:55.495Z,15.37
2023-03-21T16:59:23.338Z,15.34
2023-03-21T17:01:50.129Z,15.24
2023-03-21T17:04:18.410Z,15.23
2023-03-21T17:06:53.069Z,15.32
2023-03-21T17:09:22.106Z,15.29
2023-03-21T17:11:49.447Z,15.28
2023-03-21T17:14:17.977Z,15.22
2023-03-21T17:16:45.796Z,15.34
2023-03-21T17:19:17.886Z,15.36
2023-03-21T17:21:45.031Z,15.27
2023-03-21T17:24:11.776Z,15.36
2023-03-21T17:26:38.533Z,15.42
2023-03-21T17:29:05.339Z,15.42
2023-03-21T17:31:34.519Z,15.44
2023-03-21T17:34:03.490Z,15.46
2023-03-21T17:36:34.565Z,15.36
2023-03-21T17:39:01.715Z,15.26
2023-03-21T17:41:28.272Z,15.28
2023-03-21T17:43:55.877Z,15.29
2023-03-21T17:46:25.033Z,15.23
2023-03-21T17:48:51.912Z,15.09
2023-03-21T17:51:18.882Z,15.11
2023-03-21T17:53:48.270Z,15.08
2023-03-21T17:56:26.422Z,15.02
2023-03-21T17:58:55.927Z,15.02
2023-03-21T18:01:23.329Z,14.99
2023-03-21T18:03:50.717Z,14.96
2023-03-21T18:06:19.818Z,15.02
2023-03-21T18:08:47.394Z,15.25
2023-03-21T18:11:15.037Z,15.22
2023-03-21T18:13:43.135Z,15.18
2023-03-21T18:16:18.360Z,15.47
2023-03-21T18:18:46.472Z,15.38
2023-03-21T18:21:14.468Z,15.43
2023-03-21T18:23:41.170Z,15.45
2023-03-21T18:26:09.785Z,15.46
2023-03-21T18:28:39.599Z,15.40
2023-03-21T18:31:17.966Z,15.42
2023-03-21T18:33:48.107Z,15.40
2023-03-21T18:36:24.511Z,15.38
2023-03-21T18:38:52.279Z,15.59
2023-03-21T18:41:19.815Z,15.50
2023-03-21T18:44:02.672Z,15.51
2023-03-21T18:46:33.258Z,15.49
2023-03-21T18:49:13.125Z,15.57
2023-03-21T18:51:48.008Z,15.47
2023-03-21T18:54:15.596Z,15.48
2023-03-21T18:59:34.540Z,15.46
2023-03-21T19:02:02.073Z,15.50
2023-03-21T19:04:30.410Z,15.43
2023-03-21T19:06:57.776Z,15.50
2023-03-21T19:09:29.482Z,15.49
2023-03-21T19:11:58.615Z,15.55
2023-03-21T19:14:25.508Z,15.52
2023-03-21T19:19:39.758Z,15.48
2023-03-21T19:22:06.377Z,15.38
2023-03-21T19:24:33.258Z,15.26
2023-03-21T19:26:59.895Z,15.22
2023-03-21T19:29:26.587Z,15.23
2023-03-21T19:31:53.399Z,15.11
2023-03-21T19:34:20.827Z,15.26
2023-03-21T19:36:51.419Z,15.22
2023-03-21T19:39:21.972Z,15.21
2023-03-21T19:41:48.860Z,15.28
2023-03-21T19:44:15.491Z,15.28
2023-03-21T19:46:42.063Z,15.31
2023-03-21T19:49:08.579Z,15.30
2023-03-21T19:51:35.763Z,15.31
2023-03-21T19:54:05.035Z,15.32
2023-03-21T19:56:32.003Z,15.31
2023-03-21T19:58:59.101Z,15.28
2023-03-21T20:01:26.311Z,15.29
2023-03-21T20:03:53.343Z,15.28
2023-03-21T20:06:22.197Z,15.24
2023-03-21T20:11:35.462Z,15.19
2023-03-21T20:14:03.242Z,15.10
2023-03-21T20:16:34.929Z,14.92
2023-03-21T20:19:03.012Z,15.02
2023-03-21T20:21:48.208Z,15.03
2023-03-21T20:24:16.828Z,15.05
2023-03-21T20:26:45.229Z,15.10
2023-03-21T20:30:00.195Z,15.09
2023-03-21T20:31:58.353Z,15.05
2023-03-21T20:34:24.904Z,15.11
2023-03-21T20:36:51.679Z,15.13
2023-03-21T20:39:18.264Z,15.05
2023-03-21T20:41:44.818Z,14.94
2023-03-21T20:44:42.252Z,14.83
2023-03-21T20:46:59.946Z,14.78
2023-03-21T20:49:26.646Z,14.69
2023-03-21T20:54:42.278Z,14.77
2023-03-21T20:57:09.313Z,14.84
2023-03-21T20:59:35.923Z,14.66
2023-03-21T21:02:03.177Z,14.97
2023-03-21T21:04:48.127Z,14.94
2023-03-21T21:07:21.271Z,14.96
2023-03-21T21:09:48.735Z,14.84
2023-03-21T21:12:16.422Z,14.89
2023-03-21T21:14:43.712Z,14.95
2023-03-21T21:17:28.398Z,14.88
2023-03-21T21:19:56.894Z,14.90
2023-03-21T21:22:23.617Z,14.94
2023-03-21T21:24:50.139Z,14.98
2023-03-21T21:27:16.874Z,14.95
2023-03-21T21:29:43.666Z,14.96
2023-03-21T21:32:11.185Z,14.64
2023-03-21T21:34:37.966Z,14.45
2023-03-21T21:37:05.092Z,14.34
2023-03-21T21:39:37.761Z,14.23
2023-03-21T21:42:05.225Z,14.15
2023-03-21T21:44:31.978Z,14.10
2023-03-21T21:46:58.593Z,14.24
2023-03-21T21:49:25.293Z,14.05
2023-03-21T21:51:51.802Z,14.05
2023-03-21T21:54:18.532Z,14.02
2023-03-21T21:56:48.552Z,14.01
2023-03-21T21:59:18.402Z,14.14
2023-03-21T22:01:46.664Z,14.08
2023-03-21T22:04:14.494Z,14.08
2023-03-21T22:06:42.247Z,14.07
2023-03-21T22:09:09.418Z,14.04
2023-03-21T22:11:36.223Z,14.02
2023-03-21T22:14:03.187Z,13.98
2023-03-21T22:16:29.788Z,13.94
2023-03-21T22:18:56.334Z,13.88
2023-03-21T22:21:23.016Z,13.90
2023-03-21T22:23:49.508Z,13.93
2023-03-21T22:26:16.314Z,13.94
2023-03-21T22:28:43.596Z,14.03
2023-03-21T22:31:13.163Z,13.98
2023-03-21T22:33:39.773Z,13.98
2023-03-21T22:36:06.644Z,13.97
2023-03-21T22:38:34.617Z,13.89
2023-03-21T22:41:02.514Z,13.96
2023-03-21T22:43:29.649Z,13.96
2023-03-21T22:45:56.572Z,13.94
2023-03-21T22:48:23.204Z,13.81
2023-03-21T22:50:49.828Z,13.84
2023-03-21T22:53:16.471Z,13.87
2023-03-21T22:55:42.995Z,13.84
2023-03-21T22:58:09.509Z,13.84
2023-03-21T23:00:36.003Z,13.90
2023-03-21T23:03:02.509Z,13.94
2023-03-21T23:05:29.042Z,13.93
2023-03-21T23:07:55.622Z,13.92
2023-03-21T23:10:22.413Z,13.93
2023-03-21T23:12:49.471Z,13.95
2023-03-21T23:15:16.025Z,13.97
2023-03-21T23:17:44.202Z,13.94
2023-03-21T23:20:11.005Z,13.94
2023-03-21T23:22:37.617Z,13.95
2023-03-21T23:25:04.751Z,13.99
2023-03-21T23:27:31.326Z,13.99
2023-03-21T23:29:57.927Z,14.08
2023-03-21T23:32:24.520Z,14.04
2023-03-21T23:34:51.096Z,14.04
2023-03-21T23:37:17.637Z,13.99
2023-03-21T23:39:45.264Z,14.17
2023-03-21T23:42:11.936Z,14.20
2023-03-21T23:44:38.518Z,14.15
2023-03-21T23:47:05.063Z,14.14
2023-03-21T23:49:33.749Z,14.15
2023-03-21T23:52:00.342Z,14.08
2023-03-21T23:54:26.847Z,13.99
2023-03-21T23:56:53.313Z,13.91
2023-03-21T23:59:19.831Z,13.86
